sensor_id;sensor_type;location;lat;lon;timestamp;P1;durP1;ratioP1;P2;durP2;ratioP2
26062;SDS011;13837;48.562;12.108;2022-08-03T00:00:03;4.85;;;3.55;;
26062;SDS011;13837;48.562;12.108;2022-08-03T00:02:37;3.88;;;3.50;;
26062;SDS011;13837;48.562;12.108;2022-08-03T00:05:03;4.18;;;3.78;;
26062;SDS011;13837;48.562;12.108;2022-08-03T00:09:58;4.78;;;3.70;;
26062;SDS011;13837;48.562;12.108;2022-08-03T00:12:24;4.65;;;4.25;;
26062;SDS011;13837;48.562;12.108;2022-08-03T00:14:49;4.10;;;3.70;;
26062;SDS011;13837;48.562;12.108;2022-08-03T00:17:15;4.93;;;4.10;;
26062;SDS011;13837;48.562;12.108;2022-08-03T00:19:40;5.25;;;4.20;;
26062;SDS011;13837;48.562;12.108;2022-08-03T00:22:06;4.47;;;3.60;;
26062;SDS011;13837;48.562;12.108;2022-08-03T00:24:32;4.35;;;4.05;;
26062;SDS011;13837;48.562;12.108;2022-08-03T00:27:00;5.00;;;3.83;;
26062;SDS011;13837;48.562;12.108;2022-08-03T00:29:26;7.82;;;3.85;;
26062;SDS011;13837;48.562;12.108;2022-08-03T00:31:51;5.07;;;4.22;;
26062;SDS011;13837;48.562;12.108;2022-08-03T00:34:17;4.38;;;3.47;;
26062;SDS011;13837;48.562;12.108;2022-08-03T00:36:43;7.32;;;4.00;;
26062;SDS011;13837;48.562;12.108;2022-08-03T00:39:08;8.70;;;3.80;;
26062;SDS011;13837;48.562;12.108;2022-08-03T00:41:34;6.32;;;3.50;;
26062;SDS011;13837;48.562;12.108;2022-08-03T00:43:59;6.28;;;4.07;;
26062;SDS011;13837;48.562;12.108;2022-08-03T00:46:25;9.20;;;4.00;;
26062;SDS011;13837;48.562;12.108;2022-08-03T00:48:51;4.55;;;4.03;;
26062;SDS011;13837;48.562;12.108;2022-08-03T00:51:18;4.07;;;3.70;;
26062;SDS011;13837;48.562;12.108;2022-08-03T00:53:45;3.55;;;3.35;;
26062;SDS011;13837;48.562;12.108;2022-08-03T00:56:12;4.18;;;3.67;;
26062;SDS011;13837;48.562;12.108;2022-08-03T00:58:39;4.40;;;3.85;;
26062;SDS011;13837;48.562;12.108;2022-08-03T01:01:05;6.85;;;4.20;;
26062;SDS011;13837;48.562;12.108;2022-08-03T01:03:31;4.75;;;3.50;;
26062;SDS011;13837;48.562;12.108;2022-08-03T01:05:59;4.95;;;4.05;;
26062;SDS011;13837;48.562;12.108;2022-08-03T01:08:41;4.82;;;4.40;;
26062;SDS011;13837;48.562;12.108;2022-08-03T01:11:18;5.28;;;4.65;;
26062;SDS011;13837;48.562;12.108;2022-08-03T01:13:56;4.95;;;4.03;;
26062;SDS011;13837;48.562;12.108;2022-08-03T01:27:54;4.25;;;3.85;;
26062;SDS011;13837;48.562;12.108;2022-08-03T01:30:44;4.82;;;3.30;;
26062;SDS011;13837;48.562;12.108;2022-08-03T01:33:21;7.05;;;4.03;;
26062;SDS011;13837;48.562;12.108;2022-08-03T01:35:53;3.85;;;3.50;;
26062;SDS011;13837;48.562;12.108;2022-08-03T01:41:13;5.20;;;3.92;;
26062;SDS011;13837;48.562;12.108;2022-08-03T01:43:43;4.45;;;4.05;;
26062;SDS011;13837;48.562;12.108;2022-08-03T01:46:13;4.25;;;3.83;;
26062;SDS011;13837;48.562;12.108;2022-08-03T01:48:40;4.50;;;3.75;;
26062;SDS011;13837;48.562;12.108;2022-08-03T01:51:07;3.75;;;3.40;;
26062;SDS011;13837;48.562;12.108;2022-08-03T01:53:34;3.67;;;3.28;;
26062;SDS011;13837;48.562;12.108;2022-08-03T01:56:03;3.58;;;3.28;;
26062;SDS011;13837;48.562;12.108;2022-08-03T01:58:33;5.35;;;3.70;;
26062;SDS011;13837;48.562;12.108;2022-08-03T02:01:01;8.00;;;4.25;;
26062;SDS011;13837;48.562;12.108;2022-08-03T02:03:29;4.20;;;3.78;;
26062;SDS011;13837;48.562;12.108;2022-08-03T02:08:24;4.50;;;4.07;;
26062;SDS011;13837;48.562;12.108;2022-08-03T02:10:53;4.38;;;3.97;;
26062;SDS011;13837;48.562;12.108;2022-08-03T02:13:21;8.90;;;4.75;;
26062;SDS011;13837;48.562;12.108;2022-08-03T02:15:49;6.40;;;4.03;;
26062;SDS011;13837;48.562;12.108;2022-08-03T02:18:17;4.97;;;3.88;;
26062;SDS011;13837;48.562;12.108;2022-08-03T02:20:44;4.95;;;3.92;;
26062;SDS011;13837;48.562;12.108;2022-08-03T02:23:11;4.75;;;4.00;;
26062;SDS011;13837;48.562;12.108;2022-08-03T02:25:40;5.73;;;4.43;;
26062;SDS011;13837;48.562;12.108;2022-08-03T02:28:10;7.05;;;4.20;;
26062;SDS011;13837;48.562;12.108;2022-08-03T02:30:40;5.07;;;4.07;;
26062;SDS011;13837;48.562;12.108;2022-08-03T02:33:11;4.32;;;3.75;;
26062;SDS011;13837;48.562;12.108;2022-08-03T02:35:43;5.05;;;4.47;;
26062;SDS011;13837;48.562;12.108;2022-08-03T02:38:12;5.75;;;4.75;;
26062;SDS011;13837;48.562;12.108;2022-08-03T02:40:40;5.15;;;4.65;;
26062;SDS011;13837;48.562;12.108;2022-08-03T02:43:09;6.90;;;4.72;;
26062;SDS011;13837;48.562;12.108;2022-08-03T02:45:43;6.10;;;5.50;;
26062;SDS011;13837;48.562;12.108;2022-08-03T02:48:14;5.60;;;4.75;;
26062;SDS011;13837;48.562;12.108;2022-08-03T02:50:43;5.85;;;4.65;;
26062;SDS011;13837;48.562;12.108;2022-08-03T02:53:09;6.38;;;4.55;;
26062;SDS011;13837;48.562;12.108;2022-08-03T02:55:36;5.97;;;4.68;;
26062;SDS011;13837;48.562;12.108;2022-08-03T02:58:05;6.97;;;4.30;;
26062;SDS011;13837;48.562;12.108;2022-08-03T03:00:32;5.93;;;4.57;;
26062;SDS011;13837;48.562;12.108;2022-08-03T03:02:59;5.95;;;4.10;;
26062;SDS011;13837;48.562;12.108;2022-08-03T03:05:26;4.32;;;3.92;;
26062;SDS011;13837;48.562;12.108;2022-08-03T03:07:53;6.22;;;5.00;;
26062;SDS011;13837;48.562;12.108;2022-08-03T03:10:23;7.40;;;4.82;;
26062;SDS011;13837;48.562;12.108;2022-08-03T03:12:51;5.32;;;4.60;;
26062;SDS011;13837;48.562;12.108;2022-08-03T03:15:20;5.72;;;4.32;;
26062;SDS011;13837;48.562;12.108;2022-08-03T03:17:47;4.13;;;3.80;;
26062;SDS011;13837;48.562;12.108;2022-08-03T03:20:15;4.53;;;4.13;;
26062;SDS011;13837;48.562;12.108;2022-08-03T03:22:42;6.07;;;4.05;;
26062;SDS011;13837;48.562;12.108;2022-08-03T03:25:09;5.82;;;4.63;;
26062;SDS011;13837;48.562;12.108;2022-08-03T03:27:35;5.03;;;4.63;;
26062;SDS011;13837;48.562;12.108;2022-08-03T03:30:02;8.18;;;4.18;;
26062;SDS011;13837;48.562;12.108;2022-08-03T03:32:28;8.43;;;5.07;;
26062;SDS011;13837;48.562;12.108;2022-08-03T03:34:54;6.60;;;5.10;;
26062;SDS011;13837;48.562;12.108;2022-08-03T03:37:20;7.50;;;4.22;;
26062;SDS011;13837;48.562;12.108;2022-08-03T03:39:46;5.38;;;4.63;;
26062;SDS011;13837;48.562;12.108;2022-08-03T03:42:12;4.78;;;4.00;;
26062;SDS011;13837;48.562;12.108;2022-08-03T03:44:38;4.40;;;3.72;;
26062;SDS011;13837;48.562;12.108;2022-08-03T03:47:03;5.07;;;4.20;;
26062;SDS011;13837;48.562;12.108;2022-08-03T03:49:30;5.55;;;3.90;;
26062;SDS011;13837;48.562;12.108;2022-08-03T03:51:56;4.57;;;4.18;;
26062;SDS011;13837;48.562;12.108;2022-08-03T03:54:22;4.68;;;4.18;;
26062;SDS011;13837;48.562;12.108;2022-08-03T03:56:47;7.93;;;4.10;;
26062;SDS011;13837;48.562;12.108;2022-08-03T03:59:13;5.30;;;4.10;;
26062;SDS011;13837;48.562;12.108;2022-08-03T04:01:39;6.00;;;4.55;;
26062;SDS011;13837;48.562;12.108;2022-08-03T04:04:04;7.68;;;4.07;;
26062;SDS011;13837;48.562;12.108;2022-08-03T04:06:49;7.38;;;4.50;;
26062;SDS011;13837;48.562;12.108;2022-08-03T04:09:34;6.75;;;4.65;;
26062;SDS011;13837;48.562;12.108;2022-08-03T04:12:20;7.60;;;4.18;;
26062;SDS011;13837;48.562;12.108;2022-08-03T04:14:48;6.80;;;4.40;;
26062;SDS011;13837;48.562;12.108;2022-08-03T04:17:16;7.07;;;4.32;;
26062;SDS011;13837;48.562;12.108;2022-08-03T04:19:48;5.60;;;4.57;;
26062;SDS011;13837;48.562;12.108;2022-08-03T04:22:17;6.20;;;4.55;;
26062;SDS011;13837;48.562;12.108;2022-08-03T04:24:50;8.60;;;4.45;;
26062;SDS011;13837;48.562;12.108;2022-08-03T04:27:24;5.55;;;4.57;;
26062;SDS011;13837;48.562;12.108;2022-08-03T04:29:52;6.35;;;4.40;;
26062;SDS011;13837;48.562;12.108;2022-08-03T04:34:49;10.75;;;5.20;;
26062;SDS011;13837;48.562;12.108;2022-08-03T04:40:08;7.50;;;5.40;;
26062;SDS011;13837;48.562;12.108;2022-08-03T04:42:38;5.57;;;4.95;;
26062;SDS011;13837;48.562;12.108;2022-08-03T04:45:05;5.70;;;5.10;;
26062;SDS011;13837;48.562;12.108;2022-08-03T04:47:32;6.45;;;5.28;;
26062;SDS011;13837;48.562;12.108;2022-08-03T04:50:02;5.82;;;5.13;;
26062;SDS011;13837;48.562;12.108;2022-08-03T04:52:30;6.25;;;5.65;;
26062;SDS011;13837;48.562;12.108;2022-08-03T04:54:57;6.47;;;5.88;;
26062;SDS011;13837;48.562;12.108;2022-08-03T04:57:22;7.93;;;6.07;;
26062;SDS011;13837;48.562;12.108;2022-08-03T04:59:49;9.43;;;6.53;;
26062;SDS011;13837;48.562;12.108;2022-08-03T05:02:22;9.77;;;7.13;;
26062;SDS011;13837;48.562;12.108;2022-08-03T05:07:13;8.20;;;7.03;;
26062;SDS011;13837;48.562;12.108;2022-08-03T05:09:40;8.65;;;7.20;;
26062;SDS011;13837;48.562;12.108;2022-08-03T05:12:06;8.15;;;7.38;;
26062;SDS011;13837;48.562;12.108;2022-08-03T05:14:33;10.55;;;9.30;;
26062;SDS011;13837;48.562;12.108;2022-08-03T05:17:01;11.40;;;8.63;;
26062;SDS011;13837;48.562;12.108;2022-08-03T05:19:26;10.20;;;9.18;;
26062;SDS011;13837;48.562;12.108;2022-08-03T05:21:52;10.00;;;9.07;;
26062;SDS011;13837;48.562;12.108;2022-08-03T05:24:18;10.10;;;9.13;;
26062;SDS011;13837;48.562;12.108;2022-08-03T05:26:44;11.15;;;9.43;;
26062;SDS011;13837;48.562;12.108;2022-08-03T05:29:09;11.18;;;8.82;;
26062;SDS011;13837;48.562;12.108;2022-08-03T05:31:35;10.68;;;8.93;;
26062;SDS011;13837;48.562;12.108;2022-08-03T05:34:00;12.57;;;9.23;;
26062;SDS011;13837;48.562;12.108;2022-08-03T05:36:33;10.40;;;9.32;;
26062;SDS011;13837;48.562;12.108;2022-08-03T05:38:58;10.98;;;8.88;;
26062;SDS011;13837;48.562;12.108;2022-08-03T05:41:24;11.20;;;8.82;;
26062;SDS011;13837;48.562;12.108;2022-08-03T05:43:53;9.30;;;8.27;;
26062;SDS011;13837;48.562;12.108;2022-08-03T05:46:19;9.20;;;8.40;;
26062;SDS011;13837;48.562;12.108;2022-08-03T05:48:46;9.07;;;8.02;;
26062;SDS011;13837;48.562;12.108;2022-08-03T05:51:12;8.80;;;7.95;;
26062;SDS011;13837;48.562;12.108;2022-08-03T05:53:38;8.45;;;7.65;;
26062;SDS011;13837;48.562;12.108;2022-08-03T05:56:06;11.40;;;7.53;;
26062;SDS011;13837;48.562;12.108;2022-08-03T05:58:32;8.23;;;7.38;;
26062;SDS011;13837;48.562;12.108;2022-08-03T06:00:58;8.98;;;7.00;;
26062;SDS011;13837;48.562;12.108;2022-08-03T06:03:24;9.80;;;7.47;;
26062;SDS011;13837;48.562;12.108;2022-08-03T06:05:50;7.60;;;6.80;;
26062;SDS011;13837;48.562;12.108;2022-08-03T06:08:17;12.57;;;6.63;;
26062;SDS011;13837;48.562;12.108;2022-08-03T06:10:42;6.93;;;6.22;;
26062;SDS011;13837;48.562;12.108;2022-08-03T06:13:08;7.65;;;6.82;;
26062;SDS011;13837;48.562;12.108;2022-08-03T06:15:34;9.38;;;6.88;;
26062;SDS011;13837;48.562;12.108;2022-08-03T06:17:59;8.55;;;7.32;;
26062;SDS011;13837;48.562;12.108;2022-08-03T06:20:25;9.43;;;7.45;;
26062;SDS011;13837;48.562;12.108;2022-08-03T06:22:51;8.63;;;6.97;;
26062;SDS011;13837;48.562;12.108;2022-08-03T06:25:17;8.63;;;7.15;;
26062;SDS011;13837;48.562;12.108;2022-08-03T06:27:43;8.10;;;7.30;;
26062;SDS011;13837;48.562;12.108;2022-08-03T06:30:09;8.45;;;6.95;;
26062;SDS011;13837;48.562;12.108;2022-08-03T06:32:36;7.95;;;7.25;;
26062;SDS011;13837;48.562;12.108;2022-08-03T06:35:03;12.35;;;7.30;;
26062;SDS011;13837;48.562;12.108;2022-08-03T06:37:48;7.70;;;6.72;;
26062;SDS011;13837;48.562;12.108;2022-08-03T06:40:19;7.55;;;6.40;;
26062;SDS011;13837;48.562;12.108;2022-08-03T06:42:57;9.03;;;6.40;;
26062;SDS011;13837;48.562;12.108;2022-08-03T06:45:23;10.07;;;6.47;;
26062;SDS011;13837;48.562;12.108;2022-08-03T06:47:59;6.00;;;5.50;;
26062;SDS011;13837;48.562;12.108;2022-08-03T06:50:36;9.65;;;6.13;;
26062;SDS011;13837;48.562;12.108;2022-08-03T06:53:05;7.18;;;5.80;;
26062;SDS011;13837;48.562;12.108;2022-08-03T06:55:31;6.25;;;5.65;;
26062;SDS011;13837;48.562;12.108;2022-08-03T06:57:57;6.90;;;6.15;;
26062;SDS011;13837;48.562;12.108;2022-08-03T07:00:23;7.97;;;6.18;;
26062;SDS011;13837;48.562;12.108;2022-08-03T07:02:49;6.65;;;5.72;;
26062;SDS011;13837;48.562;12.108;2022-08-03T07:05:15;7.65;;;5.18;;
26062;SDS011;13837;48.562;12.108;2022-08-03T07:07:42;8.88;;;5.47;;
26062;SDS011;13837;48.562;12.108;2022-08-03T07:10:09;8.55;;;5.22;;
26062;SDS011;13837;48.562;12.108;2022-08-03T07:12:35;6.82;;;5.18;;
26062;SDS011;13837;48.562;12.108;2022-08-03T07:15:02;6.05;;;4.90;;
26062;SDS011;13837;48.562;12.108;2022-08-03T07:17:30;5.50;;;4.82;;
26062;SDS011;13837;48.562;12.108;2022-08-03T07:19:57;6.90;;;5.03;;
26062;SDS011;13837;48.562;12.108;2022-08-03T07:22:24;5.50;;;4.00;;
26062;SDS011;13837;48.562;12.108;2022-08-03T07:24:50;4.72;;;4.32;;
26062;SDS011;13837;48.562;12.108;2022-08-03T07:27:16;9.30;;;4.97;;
26062;SDS011;13837;48.562;12.108;2022-08-03T07:29:42;7.72;;;4.90;;
26062;SDS011;13837;48.562;12.108;2022-08-03T07:32:07;4.40;;;4.05;;
26062;SDS011;13837;48.562;12.108;2022-08-03T07:34:33;9.07;;;3.85;;
26062;SDS011;13837;48.562;12.108;2022-08-03T07:36:59;7.10;;;4.65;;
26062;SDS011;13837;48.562;12.108;2022-08-03T07:39:24;4.32;;;3.55;;
26062;SDS011;13837;48.562;12.108;2022-08-03T07:41:50;8.50;;;4.30;;
26062;SDS011;13837;48.562;12.108;2022-08-03T07:44:19;6.70;;;4.18;;
26062;SDS011;13837;48.562;12.108;2022-08-03T07:46:46;4.60;;;3.78;;
26062;SDS011;13837;48.562;12.108;2022-08-03T07:49:12;5.32;;;4.20;;
26062;SDS011;13837;48.562;12.108;2022-08-03T07:51:38;7.15;;;3.42;;
26062;SDS011;13837;48.562;12.108;2022-08-03T07:54:04;4.55;;;3.63;;
26062;SDS011;13837;48.562;12.108;2022-08-03T07:56:29;4.85;;;3.47;;
26062;SDS011;13837;48.562;12.108;2022-08-03T07:58:55;5.32;;;3.50;;
26062;SDS011;13837;48.562;12.108;2022-08-03T08:01:21;7.15;;;3.28;;
26062;SDS011;13837;48.562;12.108;2022-08-03T08:03:47;5.03;;;3.00;;
26062;SDS011;13837;48.562;12.108;2022-08-03T08:06:14;4.80;;;2.78;;
26062;SDS011;13837;48.562;12.108;2022-08-03T08:08:41;5.13;;;3.38;;
26062;SDS011;13837;48.562;12.108;2022-08-03T08:11:07;7.00;;;2.97;;
26062;SDS011;13837;48.562;12.108;2022-08-03T08:13:33;3.35;;;2.55;;
26062;SDS011;13837;48.562;12.108;2022-08-03T08:15:59;4.38;;;2.45;;
26062;SDS011;13837;48.562;12.108;2022-08-03T08:18:25;3.95;;;2.60;;
26062;SDS011;13837;48.562;12.108;2022-08-03T08:20:53;3.78;;;2.50;;
26062;SDS011;13837;48.562;12.108;2022-08-03T08:23:19;4.93;;;2.60;;
26062;SDS011;13837;48.562;12.108;2022-08-03T08:28:18;3.78;;;2.53;;
26062;SDS011;13837;48.562;12.108;2022-08-03T08:30:45;3.00;;;2.10;;
26062;SDS011;13837;48.562;12.108;2022-08-03T08:33:11;2.70;;;2.50;;
26062;SDS011;13837;48.562;12.108;2022-08-03T08:35:37;4.20;;;2.30;;
26062;SDS011;13837;48.562;12.108;2022-08-03T08:38:03;3.33;;;2.33;;
26062;SDS011;13837;48.562;12.108;2022-08-03T08:40:28;2.85;;;2.35;;
26062;SDS011;13837;48.562;12.108;2022-08-03T08:42:54;1.90;;;1.80;;
26062;SDS011;13837;48.562;12.108;2022-08-03T08:45:20;2.17;;;1.98;;
26062;SDS011;13837;48.562;12.108;2022-08-03T08:47:47;3.38;;;1.85;;
26062;SDS011;13837;48.562;12.108;2022-08-03T08:50:16;3.08;;;1.67;;
26062;SDS011;13837;48.562;12.108;2022-08-03T08:52:48;2.03;;;1.83;;
26062;SDS011;13837;48.562;12.108;2022-08-03T08:55:18;4.05;;;2.38;;
26062;SDS011;13837;48.562;12.108;2022-08-03T08:57:51;3.53;;;1.77;;
26062;SDS011;13837;48.562;12.108;2022-08-03T09:00:23;3.15;;;2.10;;
26062;SDS011;13837;48.562;12.108;2022-08-03T09:02:48;1.63;;;1.50;;
26062;SDS011;13837;48.562;12.108;2022-08-03T09:05:16;3.78;;;1.98;;
26062;SDS011;13837;48.562;12.108;2022-08-03T09:07:43;2.10;;;1.90;;
26062;SDS011;13837;48.562;12.108;2022-08-03T09:10:10;2.72;;;1.98;;
26062;SDS011;13837;48.562;12.108;2022-08-03T09:12:38;2.38;;;1.83;;
26062;SDS011;13837;48.562;12.108;2022-08-03T09:17:48;1.98;;;1.88;;
26062;SDS011;13837;48.562;12.108;2022-08-03T09:20:16;1.90;;;1.63;;
26062;SDS011;13837;48.562;12.108;2022-08-03T09:25:35;1.70;;;1.55;;
26062;SDS011;13837;48.562;12.108;2022-08-03T09:28:06;2.88;;;1.80;;
26062;SDS011;13837;48.562;12.108;2022-08-03T09:30:35;2.17;;;1.58;;
26062;SDS011;13837;48.562;12.108;2022-08-03T09:33:03;1.73;;;1.63;;
26062;SDS011;13837;48.562;12.108;2022-08-03T09:35:31;1.52;;;1.42;;
26062;SDS011;13837;48.562;12.108;2022-08-03T09:38:36;1.67;;;1.58;;
26062;SDS011;13837;48.562;12.108;2022-08-03T09:41:01;2.53;;;1.73;;
26062;SDS011;13837;48.562;12.108;2022-08-03T09:43:44;1.60;;;1.50;;
26062;SDS011;13837;48.562;12.108;2022-08-03T09:46:10;1.60;;;1.50;;
26062;SDS011;13837;48.562;12.108;2022-08-03T09:48:36;3.13;;;1.65;;
26062;SDS011;13837;48.562;12.108;2022-08-03T09:51:03;4.32;;;1.60;;
26062;SDS011;13837;48.562;12.108;2022-08-03T09:53:29;1.95;;;1.67;;
26062;SDS011;13837;48.562;12.108;2022-08-03T09:55:59;1.88;;;1.73;;
26062;SDS011;13837;48.562;12.108;2022-08-03T09:58:27;1.70;;;1.60;;
26062;SDS011;13837;48.562;12.108;2022-08-03T10:01:01;5.15;;;1.58;;
26062;SDS011;13837;48.562;12.108;2022-08-03T10:03:30;1.80;;;1.70;;
26062;SDS011;13837;48.562;12.108;2022-08-03T10:06:13;1.90;;;1.80;;
26062;SDS011;13837;48.562;12.108;2022-08-03T10:09:11;1.88;;;1.52;;
26062;SDS011;13837;48.562;12.108;2022-08-03T10:11:39;1.90;;;1.70;;
26062;SDS011;13837;48.562;12.108;2022-08-03T10:14:07;1.92;;;1.52;;
26062;SDS011;13837;48.562;12.108;2022-08-03T10:19:04;1.60;;;1.50;;
26062;SDS011;13837;48.562;12.108;2022-08-03T10:21:32;1.58;;;1.48;;
26062;SDS011;13837;48.562;12.108;2022-08-03T10:24:01;1.93;;;1.47;;
26062;SDS011;13837;48.562;12.108;2022-08-03T10:26:29;1.77;;;1.63;;
26062;SDS011;13837;48.562;12.108;2022-08-03T10:28:56;1.50;;;1.40;;
26062;SDS011;13837;48.562;12.108;2022-08-03T10:31:25;1.45;;;1.35;;
26062;SDS011;13837;48.562;12.108;2022-08-03T10:33:58;1.52;;;1.42;;
26062;SDS011;13837;48.562;12.108;2022-08-03T10:36:26;1.42;;;1.30;;
26062;SDS011;13837;48.562;12.108;2022-08-03T10:38:55;2.22;;;1.55;;
26062;SDS011;13837;48.562;12.108;2022-08-03T10:41:25;1.50;;;1.40;;
26062;SDS011;13837;48.562;12.108;2022-08-03T10:44:04;2.80;;;1.23;;
26062;SDS011;13837;48.562;12.108;2022-08-03T10:46:33;1.92;;;1.30;;
26062;SDS011;13837;48.562;12.108;2022-08-03T10:49:02;1.08;;;0.95;;
26062;SDS011;13837;48.562;12.108;2022-08-03T10:51:29;1.60;;;1.50;;
26062;SDS011;13837;48.562;12.108;2022-08-03T10:53:56;3.00;;;1.48;;
26062;SDS011;13837;48.562;12.108;2022-08-03T11:02:13;2.35;;;1.30;;
26062;SDS011;13837;48.562;12.108;2022-08-03T11:04:39;6.75;;;1.30;;
26062;SDS011;13837;48.562;12.108;2022-08-03T11:09:42;1.58;;;1.48;;
26062;SDS011;13837;48.562;12.108;2022-08-03T11:14:50;1.75;;;1.27;;
26062;SDS011;13837;48.562;12.108;2022-08-03T11:17:18;3.53;;;1.45;;
26062;SDS011;13837;48.562;12.108;2022-08-03T11:19:44;1.38;;;1.27;;
26062;SDS011;13837;48.562;12.108;2022-08-03T11:22:11;1.38;;;1.25;;
26062;SDS011;13837;48.562;12.108;2022-08-03T11:45:59;2.03;;;1.20;;
26062;SDS011;13837;48.562;12.108;2022-08-03T11:48:45;2.53;;;1.30;;
26062;SDS011;13837;48.562;12.108;2022-08-03T11:53:46;1.45;;;1.30;;
26062;SDS011;13837;48.562;12.108;2022-08-03T11:56:15;1.27;;;1.20;;
26062;SDS011;13837;48.562;12.108;2022-08-03T11:58:47;2.00;;;1.17;;
26062;SDS011;13837;48.562;12.108;2022-08-03T12:01:16;1.30;;;1.20;;
26062;SDS011;13837;48.562;12.108;2022-08-03T12:03:42;3.25;;;1.25;;
26062;SDS011;13837;48.562;12.108;2022-08-03T12:06:09;1.00;;;1.00;;
26062;SDS011;13837;48.562;12.108;2022-08-03T12:08:36;1.20;;;1.20;;
26062;SDS011;13837;48.562;12.108;2022-08-03T12:11:02;2.05;;;1.20;;
26062;SDS011;13837;48.562;12.108;2022-08-03T12:13:47;2.78;;;1.30;;
26062;SDS011;13837;48.562;12.108;2022-08-03T12:18:45;0.98;;;0.90;;
26062;SDS011;13837;48.562;12.108;2022-08-03T12:21:18;1.25;;;0.82;;
26062;SDS011;13837;48.562;12.108;2022-08-03T12:23:48;1.90;;;1.58;;
26062;SDS011;13837;48.562;12.108;2022-08-03T12:26:14;2.78;;;1.00;;
26062;SDS011;13837;48.562;12.108;2022-08-03T12:28:45;2.72;;;1.35;;
26062;SDS011;13837;48.562;12.108;2022-08-03T12:31:12;1.35;;;1.27;;
26062;SDS011;13837;48.562;12.108;2022-08-03T12:36:27;1.38;;;1.10;;
26062;SDS011;13837;48.562;12.108;2022-08-03T12:38:54;1.25;;;1.15;;
26062;SDS011;13837;48.562;12.108;2022-08-03T12:41:32;1.30;;;1.20;;
26062;SDS011;13837;48.562;12.108;2022-08-03T12:44:00;2.58;;;1.25;;
26062;SDS011;13837;48.562;12.108;2022-08-03T12:46:37;1.63;;;1.23;;
26062;SDS011;13837;48.562;12.108;2022-08-03T12:51:35;2.03;;;1.10;;
26062;SDS011;13837;48.562;12.108;2022-08-03T12:54:07;1.20;;;1.20;;
26062;SDS011;13837;48.562;12.108;2022-08-03T12:56:34;1.40;;;1.30;;
26062;SDS011;13837;48.562;12.108;2022-08-03T12:59:24;1.20;;;1.10;;
26062;SDS011;13837;48.562;12.108;2022-08-03T13:01:50;1.33;;;1.23;;
26062;SDS011;13837;48.562;12.108;2022-08-03T13:06:58;1.75;;;1.35;;
26062;SDS011;13837;48.562;12.108;2022-08-03T13:09:28;1.50;;;1.40;;
26062;SDS011;13837;48.562;12.108;2022-08-03T13:12:05;1.10;;;1.10;;
26062;SDS011;13837;48.562;12.108;2022-08-03T13:14:41;1.52;;;1.42;;
26062;SDS011;13837;48.562;12.108;2022-08-03T13:17:08;2.63;;;1.20;;
26062;SDS011;13837;48.562;12.108;2022-08-03T13:19:34;3.08;;;1.15;;
26062;SDS011;13837;48.562;12.108;2022-08-03T13:22:09;1.20;;;1.20;;
26062;SDS011;13837;48.562;12.108;2022-08-03T13:24:35;1.75;;;1.17;;
26062;SDS011;13837;48.562;12.108;2022-08-03T13:27:01;2.35;;;1.23;;
26062;SDS011;13837;48.562;12.108;2022-08-03T13:29:29;1.65;;;1.20;;
26062;SDS011;13837;48.562;12.108;2022-08-03T13:31:54;1.25;;;1.25;;
26062;SDS011;13837;48.562;12.108;2022-08-03T13:34:20;1.30;;;1.20;;
26062;SDS011;13837;48.562;12.108;2022-08-03T13:36:46;1.95;;;1.27;;
26062;SDS011;13837;48.562;12.108;2022-08-03T13:39:11;2.63;;;1.40;;
26062;SDS011;13837;48.562;12.108;2022-08-03T13:41:37;1.42;;;1.33;;
26062;SDS011;13837;48.562;12.108;2022-08-03T13:44:03;2.35;;;1.42;;
26062;SDS011;13837;48.562;12.108;2022-08-03T13:46:28;1.50;;;1.40;;
26062;SDS011;13837;48.562;12.108;2022-08-03T13:48:54;2.58;;;1.30;;
26062;SDS011;13837;48.562;12.108;2022-08-03T13:51:20;3.53;;;1.45;;
26062;SDS011;13837;48.562;12.108;2022-08-03T13:53:45;2.05;;;1.45;;
26062;SDS011;13837;48.562;12.108;2022-08-03T13:56:11;3.35;;;1.50;;
26062;SDS011;13837;48.562;12.108;2022-08-03T13:58:37;1.67;;;1.48;;
26062;SDS011;13837;48.562;12.108;2022-08-03T14:01:02;1.92;;;1.30;;
26062;SDS011;13837;48.562;12.108;2022-08-03T14:03:28;1.67;;;1.27;;
26062;SDS011;13837;48.562;12.108;2022-08-03T14:05:54;2.10;;;1.58;;
26062;SDS011;13837;48.562;12.108;2022-08-03T14:08:19;3.65;;;1.13;;
26062;SDS011;13837;48.562;12.108;2022-08-03T14:10:45;3.65;;;1.40;;
26062;SDS011;13837;48.562;12.108;2022-08-03T14:13:11;2.33;;;1.30;;
26062;SDS011;13837;48.562;12.108;2022-08-03T14:18:05;1.42;;;1.33;;
26062;SDS011;13837;48.562;12.108;2022-08-03T14:20:32;1.30;;;1.20;;
26062;SDS011;13837;48.562;12.108;2022-08-03T14:22:58;1.60;;;1.20;;
26062;SDS011;13837;48.562;12.108;2022-08-03T14:25:24;2.28;;;1.30;;
26062;SDS011;13837;48.562;12.108;2022-08-03T14:27:49;1.00;;;1.00;;
26062;SDS011;13837;48.562;12.108;2022-08-03T14:30:15;2.67;;;1.50;;
26062;SDS011;13837;48.562;12.108;2022-08-03T14:32:41;1.30;;;1.20;;
26062;SDS011;13837;48.562;12.108;2022-08-03T14:35:07;1.98;;;1.60;;
26062;SDS011;13837;48.562;12.108;2022-08-03T14:37:33;1.33;;;1.23;;
26062;SDS011;13837;48.562;12.108;2022-08-03T14:39:59;2.35;;;1.42;;
26062;SDS011;13837;48.562;12.108;2022-08-03T14:42:25;1.52;;;1.42;;
26062;SDS011;13837;48.562;12.108;2022-08-03T14:44:50;1.95;;;1.52;;
26062;SDS011;13837;48.562;12.108;2022-08-03T14:47:16;1.73;;;1.38;;
26062;SDS011;13837;48.562;12.108;2022-08-03T14:49:42;1.40;;;1.30;;
26062;SDS011;13837;48.562;12.108;2022-08-03T14:52:08;1.85;;;1.20;;
26062;SDS011;13837;48.562;12.108;2022-08-03T14:54:33;1.52;;;1.42;;
26062;SDS011;13837;48.562;12.108;2022-08-03T14:56:59;3.38;;;1.33;;
26062;SDS011;13837;48.562;12.108;2022-08-03T14:59:25;1.27;;;1.17;;
26062;SDS011;13837;48.562;12.108;2022-08-03T15:01:51;4.45;;;1.55;;
26062;SDS011;13837;48.562;12.108;2022-08-03T15:04:17;1.73;;;1.60;;
26062;SDS011;13837;48.562;12.108;2022-08-03T15:06:43;4.63;;;1.58;;
26062;SDS011;13837;48.562;12.108;2022-08-03T15:09:09;1.35;;;1.25;;
26062;SDS011;13837;48.562;12.108;2022-08-03T15:11:34;2.47;;;1.30;;
26062;SDS011;13837;48.562;12.108;2022-08-03T15:14:00;2.70;;;1.10;;
26062;SDS011;13837;48.562;12.108;2022-08-03T15:16:26;2.38;;;1.35;;
26062;SDS011;13837;48.562;12.108;2022-08-03T15:18:52;1.42;;;1.38;;
26062;SDS011;13837;48.562;12.108;2022-08-03T15:21:17;1.42;;;1.33;;
26062;SDS011;13837;48.562;12.108;2022-08-03T15:23:43;2.85;;;1.30;;
26062;SDS011;13837;48.562;12.108;2022-08-03T15:26:09;1.60;;;1.10;;
26062;SDS011;13837;48.562;12.108;2022-08-03T15:28:34;0.90;;;0.90;;
26062;SDS011;13837;48.562;12.108;2022-08-03T15:31:00;1.02;;;1.00;;
26062;SDS011;13837;48.562;12.108;2022-08-03T15:33:26;1.88;;;1.30;;
26062;SDS011;13837;48.562;12.108;2022-08-03T15:35:52;1.42;;;1.30;;
26062;SDS011;13837;48.562;12.108;2022-08-03T15:38:18;1.20;;;1.10;;
26062;SDS011;13837;48.562;12.108;2022-08-03T15:40:47;2.55;;;1.20;;
26062;SDS011;13837;48.562;12.108;2022-08-03T15:43:12;2.17;;;1.27;;
26062;SDS011;13837;48.562;12.108;2022-08-03T15:45:38;2.15;;;1.20;;
26062;SDS011;13837;48.562;12.108;2022-08-03T15:48:04;1.60;;;1.50;;
26062;SDS011;13837;48.562;12.108;2022-08-03T15:50:30;1.30;;;1.20;;
26062;SDS011;13837;48.562;12.108;2022-08-03T15:52:56;4.78;;;1.10;;
26062;SDS011;13837;48.562;12.108;2022-08-03T15:55:21;2.13;;;1.23;;
26062;SDS011;13837;48.562;12.108;2022-08-03T15:57:47;1.30;;;1.20;;
26062;SDS011;13837;48.562;12.108;2022-08-03T16:00:13;1.33;;;1.20;;
26062;SDS011;13837;48.562;12.108;2022-08-03T16:02:39;1.65;;;1.25;;